Airfield :
LOGIN :

Register | Disclaimer

   EN    FR    IT 

 










Legend :    VFR   Marginal VFR   IFR   Intensive IFR   Very Intensive IFR
Visi :
Ceiling :
>= 8 km
>= 3000ft
5 to 8 km
1000 to 3000 ft
1500m to 5 km
500 to 1000 ft
800 to 1500m
200 to 500 ft
< 800m
< 200 ft
Symbols :   Thunderstorms  Fog  Heavy snow  Heavy precipitations  Wind > 20 kt
SIGMETs :     Misc.  Thunderstorms  Icing  Turbulence  Mountain Waves  Volcanic Ashes







- Airport Elevation : 659 ft
- IATA code : LYN
- Download approach charts


LFLY - Lyon Bron

CURRENT METAR :
  • 182200Z AUTO 15006KT CAVOK 17/12 Q1013 NOSIG

EXPIRED METARs :
  • 182130Z AUTO 15008KT CAVOK 18/13 Q1014 NOSIG
  • 182100Z AUTO 16007KT 130V190 CAVOK 18/13 Q1014 NOSIG
  • 182030Z AUTO 16008KT 130V190 CAVOK 18/12 Q1014 NOSIG
  • 182000Z AUTO 15006KT CAVOK 19/11 Q1013 NOSIG
  • 181930Z AUTO 18010KT CAVOK 19/11 Q1013 NOSIG
  • 181900Z AUTO 18010KT 9999 -RA NSC 20/11 Q1013 NOSIG

TAF TAF LFLY
Valid from the 18 at 18:00 until the 19 at 18:00 UTC


181700Z 1818/1918 18006KT CAVOK
TEMPO 1910/1918 18012KT
ATIS : +33 4 72 15 87 96
No reported NOTAMs for that airfield.
4 SIGMETs reported for the Marseille FIR (LFMM) :
 
Severe turbulence
LFMM SIGMET 9 VALID 182000/190000 LFPW
LFMM MARSEILLE FIR/UIR SEV TURB FCST WI N4315 E00230 - N4515 E00245 - N4530 E00430 - N4430 E00415 SFC/FL080 STNR NC=
Severe turbulence
LFMM SIGMET 12 VALID 182300/190300 LFPW
LFMM MARSEILLE FIR/UIR SEV TURB FCST WI N4315 E00230 - N4515 E00245 - N4530 E00430 - N4430 E00415 SFC/FL080 STNR NC=
Embedded thunderstorms
LFMM SIGMET 11 VALID 182200/190200 LFPW
LFMM MARSEILLE FIR/UIR EMBD TS OBS WI N4200 E00430 - N4215 E00230 - N4430 E00245 - N4430 E00345 TOP FL400 MOV N 25KT NC=
Embedded thunderstorms
LFMM SIGMET 10 VALID 182030/182200 LFPW
LFMM MARSEILLE FIR/UIR EMBD TS OBS WI N4215 E00345 - N4215 E00230 - N4300 E00230 - N4300 E00315 TOP FL420 MOV NE 20KT NC=



MET'MAP, your aeronautical weather chart ! - Copyright ORBIFLY December 2007 - Disclaimer

ORBIFLY MET'MAP TEAM :

Programming & Development : Alexandra Zaïnal
Concept & Development : Baudouin d'Aumeries
Co-Development & Prog : Marc-Olivier Méhu
Technical & hardware support : Manuel Goepfert

Contact : metmap@orbifly.com




SOURCES & CREDITS :

   NOAA